sensor_id;sensor_type;location;lat;lon;timestamp;temperature;humidity
15556;DHT22;7879;48.660;9.116;2023-05-10T00:00:55;13.80;99.90
15556;DHT22;7879;48.660;9.116;2023-05-10T00:03:22;13.80;99.90
15556;DHT22;7879;48.660;9.116;2023-05-10T00:05:49;13.80;99.90
15556;DHT22;7879;48.660;9.116;2023-05-10T00:08:16;13.80;99.90
15556;DHT22;7879;48.660;9.116;2023-05-10T00:10:42;13.90;99.90
15556;DHT22;7879;48.660;9.116;2023-05-10T00:13:09;13.80;99.90
15556;DHT22;7879;48.660;9.116;2023-05-10T00:15:36;13.80;99.90
15556;DHT22;7879;48.660;9.116;2023-05-10T00:18:03;13.70;99.90
15556;DHT22;7879;48.660;9.116;2023-05-10T00:20:29;13.70;99.90
15556;DHT22;7879;48.660;9.116;2023-05-10T00:22:56;13.70;99.90
15556;DHT22;7879;48.660;9.116;2023-05-10T00:25:23;13.70;99.90
15556;DHT22;7879;48.660;9.116;2023-05-10T00:27:50;13.70;99.90
15556;DHT22;7879;48.660;9.116;2023-05-10T00:30:16;13.70;99.90
15556;DHT22;7879;48.660;9.116;2023-05-10T00:32:44;13.70;99.90
15556;DHT22;7879;48.660;9.116;2023-05-10T00:35:10;13.60;99.90
15556;DHT22;7879;48.660;9.116;2023-05-10T00:37:37;13.60;99.90
15556;DHT22;7879;48.660;9.116;2023-05-10T00:40:05;13.60;99.90
15556;DHT22;7879;48.660;9.116;2023-05-10T00:42:32;13.60;99.90
15556;DHT22;7879;48.660;9.116;2023-05-10T00:44:59;13.60;99.90
15556;DHT22;7879;48.660;9.116;2023-05-10T00:47:25;13.60;99.90
15556;DHT22;7879;48.660;9.116;2023-05-10T00:49:52;13.50;99.90
15556;DHT22;7879;48.660;9.116;2023-05-10T00:52:19;13.60;99.90
15556;DHT22;7879;48.660;9.116;2023-05-10T00:54:46;13.50;99.90
15556;DHT22;7879;48.660;9.116;2023-05-10T00:57:14;13.40;99.90
15556;DHT22;7879;48.660;9.116;2023-05-10T00:59:41;13.40;99.90
15556;DHT22;7879;48.660;9.116;2023-05-10T01:02:08;13.40;99.90
15556;DHT22;7879;48.660;9.116;2023-05-10T01:04:35;13.40;99.90
15556;DHT22;7879;48.660;9.116;2023-05-10T01:07:02;13.40;99.90
15556;DHT22;7879;48.660;9.116;2023-05-10T01:09:29;13.40;99.90
15556;DHT22;7879;48.660;9.116;2023-05-10T01:11:56;13.40;99.90
15556;DHT22;7879;48.660;9.116;2023-05-10T01:14:23;13.40;99.90
15556;DHT22;7879;48.660;9.116;2023-05-10T01:16:52;13.40;99.90
15556;DHT22;7879;48.660;9.116;2023-05-10T01:19:25;13.40;99.90
15556;DHT22;7879;48.660;9.116;2023-05-10T01:25:31;13.30;99.90
15556;DHT22;7879;48.660;9.116;2023-05-10T01:28:51;13.30;99.90
15556;DHT22;7879;48.660;9.116;2023-05-10T01:33:52;13.30;99.90
15556;DHT22;7879;48.660;9.116;2023-05-10T01:36:40;13.20;99.90
15556;DHT22;7879;48.660;9.116;2023-05-10T01:39:14;13.30;99.90
15556;DHT22;7879;48.660;9.116;2023-05-10T01:42:01;13.30;99.90
15556;DHT22;7879;48.660;9.116;2023-05-10T01:47:14;13.20;99.90
15556;DHT22;7879;48.660;9.116;2023-05-10T01:49:47;13.20;99.90
15556;DHT22;7879;48.660;9.116;2023-05-10T01:52:18;13.20;99.90
15556;DHT22;7879;48.660;9.116;2023-05-10T01:54:53;13.10;99.90
15556;DHT22;7879;48.660;9.116;2023-05-10T01:57:22;13.10;99.90
15556;DHT22;7879;48.660;9.116;2023-05-10T01:59:50;13.10;99.90
15556;DHT22;7879;48.660;9.116;2023-05-10T02:02:20;13.10;99.90
15556;DHT22;7879;48.660;9.116;2023-05-10T02:04:48;13.10;99.90
15556;DHT22;7879;48.660;9.116;2023-05-10T02:07:16;13.00;99.90
15556;DHT22;7879;48.660;9.116;2023-05-10T02:09:44;13.00;99.90
15556;DHT22;7879;48.660;9.116;2023-05-10T02:12:15;12.90;99.90
15556;DHT22;7879;48.660;9.116;2023-05-10T02:14:42;12.90;99.90
15556;DHT22;7879;48.660;9.116;2023-05-10T02:17:11;12.90;99.90
15556;DHT22;7879;48.660;9.116;2023-05-10T02:19:39;12.80;99.90
15556;DHT22;7879;48.660;9.116;2023-05-10T02:22:08;12.80;99.90
15556;DHT22;7879;48.660;9.116;2023-05-10T02:24:36;12.80;99.90
15556;DHT22;7879;48.660;9.116;2023-05-10T02:27:04;12.80;99.90
15556;DHT22;7879;48.660;9.116;2023-05-10T02:29:32;12.70;99.90
15556;DHT22;7879;48.660;9.116;2023-05-10T02:32:00;12.70;99.90
15556;DHT22;7879;48.660;9.116;2023-05-10T02:34:28;12.60;99.90
15556;DHT22;7879;48.660;9.116;2023-05-10T02:36:56;12.60;99.90
15556;DHT22;7879;48.660;9.116;2023-05-10T02:39:24;12.60;99.90
15556;DHT22;7879;48.660;9.116;2023-05-10T02:41:52;12.70;99.90
15556;DHT22;7879;48.660;9.116;2023-05-10T02:44:20;12.70;99.90
15556;DHT22;7879;48.660;9.116;2023-05-10T02:46:48;12.70;99.90
15556;DHT22;7879;48.660;9.116;2023-05-10T02:49:16;12.70;99.90
15556;DHT22;7879;48.660;9.116;2023-05-10T02:51:50;12.70;99.90
15556;DHT22;7879;48.660;9.116;2023-05-10T02:54:25;12.60;99.90
15556;DHT22;7879;48.660;9.116;2023-05-10T02:56:58;12.60;99.90
15556;DHT22;7879;48.660;9.116;2023-05-10T02:59:29;12.60;99.90
15556;DHT22;7879;48.660;9.116;2023-05-10T03:01:56;12.50;99.90
15556;DHT22;7879;48.660;9.116;2023-05-10T03:04:22;12.50;99.90
15556;DHT22;7879;48.660;9.116;2023-05-10T03:06:50;12.40;99.90
15556;DHT22;7879;48.660;9.116;2023-05-10T03:09:17;12.40;99.90
15556;DHT22;7879;48.660;9.116;2023-05-10T03:12:04;12.40;99.90
15556;DHT22;7879;48.660;9.116;2023-05-10T03:15:00;12.40;99.90
15556;DHT22;7879;48.660;9.116;2023-05-10T03:17:56;12.40;99.90
15556;DHT22;7879;48.660;9.116;2023-05-10T03:20:29;12.40;99.90
15556;DHT22;7879;48.660;9.116;2023-05-10T03:23:13;12.30;99.90
15556;DHT22;7879;48.660;9.116;2023-05-10T03:25:44;12.40;99.90
15556;DHT22;7879;48.660;9.116;2023-05-10T03:28:14;12.40;99.90
15556;DHT22;7879;48.660;9.116;2023-05-10T03:30:43;12.40;99.90
15556;DHT22;7879;48.660;9.116;2023-05-10T03:33:10;12.40;99.90
15556;DHT22;7879;48.660;9.116;2023-05-10T03:35:37;12.40;99.90
15556;DHT22;7879;48.660;9.116;2023-05-10T03:38:04;12.50;99.90
15556;DHT22;7879;48.660;9.116;2023-05-10T03:40:31;12.50;99.90
15556;DHT22;7879;48.660;9.116;2023-05-10T03:42:58;12.50;99.90
15556;DHT22;7879;48.660;9.116;2023-05-10T03:45:25;12.50;99.90
15556;DHT22;7879;48.660;9.116;2023-05-10T03:47:52;12.40;99.90
15556;DHT22;7879;48.660;9.116;2023-05-10T03:50:20;12.40;99.90
15556;DHT22;7879;48.660;9.116;2023-05-10T03:52:48;12.40;99.90
15556;DHT22;7879;48.660;9.116;2023-05-10T03:55:15;12.30;99.90
15556;DHT22;7879;48.660;9.116;2023-05-10T03:57:42;12.30;99.90
15556;DHT22;7879;48.660;9.116;2023-05-10T04:00:09;12.30;99.90
15556;DHT22;7879;48.660;9.116;2023-05-10T04:02:36;12.30;99.90
15556;DHT22;7879;48.660;9.116;2023-05-10T04:05:04;12.30;99.90
15556;DHT22;7879;48.660;9.116;2023-05-10T04:07:31;12.30;99.90
15556;DHT22;7879;48.660;9.116;2023-05-10T04:09:57;12.20;99.90
15556;DHT22;7879;48.660;9.116;2023-05-10T04:12:24;12.20;99.90
15556;DHT22;7879;48.660;9.116;2023-05-10T04:14:51;12.20;99.90
15556;DHT22;7879;48.660;9.116;2023-05-10T04:17:18;12.40;99.90
15556;DHT22;7879;48.660;9.116;2023-05-10T04:19:45;12.20;99.90
15556;DHT22;7879;48.660;9.116;2023-05-10T04:22:12;12.20;99.90
15556;DHT22;7879;48.660;9.116;2023-05-10T04:24:38;12.30;99.90
15556;DHT22;7879;48.660;9.116;2023-05-10T04:27:05;12.20;99.90
15556;DHT22;7879;48.660;9.116;2023-05-10T04:29:32;12.20;99.90
15556;DHT22;7879;48.660;9.116;2023-05-10T04:31:58;12.20;99.90
15556;DHT22;7879;48.660;9.116;2023-05-10T04:34:25;12.20;99.90
15556;DHT22;7879;48.660;9.116;2023-05-10T04:36:52;12.20;99.90
15556;DHT22;7879;48.660;9.116;2023-05-10T04:39:19;12.20;99.90
15556;DHT22;7879;48.660;9.116;2023-05-10T04:41:45;12.30;99.90
15556;DHT22;7879;48.660;9.116;2023-05-10T04:44:12;12.20;99.90
15556;DHT22;7879;48.660;9.116;2023-05-10T04:46:39;12.30;99.90
15556;DHT22;7879;48.660;9.116;2023-05-10T04:49:06;12.20;99.90
15556;DHT22;7879;48.660;9.116;2023-05-10T04:51:33;12.20;99.90
15556;DHT22;7879;48.660;9.116;2023-05-10T04:53:59;12.20;99.90
15556;DHT22;7879;48.660;9.116;2023-05-10T04:56:32;12.20;99.90
15556;DHT22;7879;48.660;9.116;2023-05-10T04:58:59;12.30;99.90
15556;DHT22;7879;48.660;9.116;2023-05-10T05:01:26;12.30;99.90
15556;DHT22;7879;48.660;9.116;2023-05-10T05:03:53;12.20;99.90
15556;DHT22;7879;48.660;9.116;2023-05-10T05:06:20;12.30;99.90
15556;DHT22;7879;48.660;9.116;2023-05-10T05:08:47;12.30;99.90
15556;DHT22;7879;48.660;9.116;2023-05-10T05:11:16;12.30;99.90
15556;DHT22;7879;48.660;9.116;2023-05-10T05:13:43;12.30;99.90
15556;DHT22;7879;48.660;9.116;2023-05-10T05:16:10;12.30;99.90
15556;DHT22;7879;48.660;9.116;2023-05-10T05:18:38;12.30;99.90
15556;DHT22;7879;48.660;9.116;2023-05-10T05:21:25;12.30;99.90
15556;DHT22;7879;48.660;9.116;2023-05-10T05:23:53;12.30;99.90
15556;DHT22;7879;48.660;9.116;2023-05-10T05:26:20;12.30;99.90
15556;DHT22;7879;48.660;9.116;2023-05-10T05:28:46;12.30;99.90
15556;DHT22;7879;48.660;9.116;2023-05-10T05:31:14;12.30;99.90
15556;DHT22;7879;48.660;9.116;2023-05-10T05:33:41;12.30;99.90
15556;DHT22;7879;48.660;9.116;2023-05-10T05:36:08;12.30;99.90
15556;DHT22;7879;48.660;9.116;2023-05-10T05:38:35;12.40;99.90
15556;DHT22;7879;48.660;9.116;2023-05-10T05:41:02;12.40;99.90
15556;DHT22;7879;48.660;9.116;2023-05-10T05:43:29;12.30;99.90
15556;DHT22;7879;48.660;9.116;2023-05-10T05:45:56;12.30;99.90
15556;DHT22;7879;48.660;9.116;2023-05-10T05:48:24;12.30;99.90
15556;DHT22;7879;48.660;9.116;2023-05-10T05:50:54;12.30;99.90
15556;DHT22;7879;48.660;9.116;2023-05-10T05:53:22;12.30;99.90
15556;DHT22;7879;48.660;9.116;2023-05-10T05:55:57;12.40;99.90
15556;DHT22;7879;48.660;9.116;2023-05-10T05:58:25;12.30;99.90
15556;DHT22;7879;48.660;9.116;2023-05-10T06:00:52;12.40;99.90
15556;DHT22;7879;48.660;9.116;2023-05-10T06:03:19;12.50;99.90
15556;DHT22;7879;48.660;9.116;2023-05-10T06:05:46;12.40;99.90
15556;DHT22;7879;48.660;9.116;2023-05-10T06:08:13;12.50;99.90
15556;DHT22;7879;48.660;9.116;2023-05-10T06:10:40;12.50;99.90
15556;DHT22;7879;48.660;9.116;2023-05-10T06:13:07;12.50;99.90
15556;DHT22;7879;48.660;9.116;2023-05-10T06:15:34;12.60;99.90
15556;DHT22;7879;48.660;9.116;2023-05-10T06:18:01;12.60;99.90
15556;DHT22;7879;48.660;9.116;2023-05-10T06:20:28;12.60;99.90
15556;DHT22;7879;48.660;9.116;2023-05-10T06:22:54;12.60;99.90
15556;DHT22;7879;48.660;9.116;2023-05-10T06:25:21;12.60;99.90
15556;DHT22;7879;48.660;9.116;2023-05-10T06:27:48;12.60;99.90
15556;DHT22;7879;48.660;9.116;2023-05-10T06:30:19;12.70;99.90
15556;DHT22;7879;48.660;9.116;2023-05-10T06:32:46;12.70;99.90
15556;DHT22;7879;48.660;9.116;2023-05-10T06:35:13;12.60;99.90
15556;DHT22;7879;48.660;9.116;2023-05-10T06:37:40;12.50;99.90
15556;DHT22;7879;48.660;9.116;2023-05-10T06:40:07;12.70;99.90
15556;DHT22;7879;48.660;9.116;2023-05-10T06:42:34;12.70;99.90
15556;DHT22;7879;48.660;9.116;2023-05-10T06:45:01;12.70;99.90
15556;DHT22;7879;48.660;9.116;2023-05-10T06:47:28;12.70;99.90
15556;DHT22;7879;48.660;9.116;2023-05-10T06:49:55;12.70;99.90
15556;DHT22;7879;48.660;9.116;2023-05-10T06:52:22;12.60;99.90
15556;DHT22;7879;48.660;9.116;2023-05-10T06:54:49;12.60;99.90
15556;DHT22;7879;48.660;9.116;2023-05-10T06:57:17;12.60;99.90
15556;DHT22;7879;48.660;9.116;2023-05-10T06:59:57;12.70;99.90
15556;DHT22;7879;48.660;9.116;2023-05-10T07:02:24;12.70;99.90
15556;DHT22;7879;48.660;9.116;2023-05-10T07:04:51;12.70;99.90
15556;DHT22;7879;48.660;9.116;2023-05-10T07:07:18;12.80;99.90
15556;DHT22;7879;48.660;9.116;2023-05-10T07:09:45;12.80;99.90
15556;DHT22;7879;48.660;9.116;2023-05-10T07:12:13;12.80;99.90
15556;DHT22;7879;48.660;9.116;2023-05-10T07:14:41;12.90;99.90
15556;DHT22;7879;48.660;9.116;2023-05-10T07:17:08;12.90;99.90
15556;DHT22;7879;48.660;9.116;2023-05-10T07:19:35;13.00;99.90
15556;DHT22;7879;48.660;9.116;2023-05-10T07:22:02;13.00;99.90
15556;DHT22;7879;48.660;9.116;2023-05-10T07:24:29;13.00;99.90
15556;DHT22;7879;48.660;9.116;2023-05-10T07:26:57;13.00;99.90
15556;DHT22;7879;48.660;9.116;2023-05-10T07:29:24;13.10;99.90
15556;DHT22;7879;48.660;9.116;2023-05-10T07:31:51;13.10;99.90
15556;DHT22;7879;48.660;9.116;2023-05-10T07:34:18;13.10;99.90
15556;DHT22;7879;48.660;9.116;2023-05-10T07:36:45;13.10;99.90
15556;DHT22;7879;48.660;9.116;2023-05-10T07:39:12;13.10;99.90
15556;DHT22;7879;48.660;9.116;2023-05-10T07:41:52;13.20;99.90
15556;DHT22;7879;48.660;9.116;2023-05-10T07:44:18;13.20;99.90
15556;DHT22;7879;48.660;9.116;2023-05-10T07:46:47;13.20;99.90
15556;DHT22;7879;48.660;9.116;2023-05-10T07:49:14;13.20;99.90
15556;DHT22;7879;48.660;9.116;2023-05-10T07:51:41;13.20;99.90
15556;DHT22;7879;48.660;9.116;2023-05-10T07:54:08;13.20;99.90
15556;DHT22;7879;48.660;9.116;2023-05-10T07:56:35;13.20;99.90
15556;DHT22;7879;48.660;9.116;2023-05-10T07:59:03;13.20;99.90
15556;DHT22;7879;48.660;9.116;2023-05-10T08:01:32;13.10;99.90
15556;DHT22;7879;48.660;9.116;2023-05-10T08:03:59;13.20;99.90
15556;DHT22;7879;48.660;9.116;2023-05-10T08:06:27;13.20;99.90
15556;DHT22;7879;48.660;9.116;2023-05-10T08:08:54;13.20;99.90
15556;DHT22;7879;48.660;9.116;2023-05-10T08:11:22;13.20;99.90
15556;DHT22;7879;48.660;9.116;2023-05-10T08:13:50;13.20;99.90
15556;DHT22;7879;48.660;9.116;2023-05-10T08:16:17;13.30;99.90
15556;DHT22;7879;48.660;9.116;2023-05-10T08:18:45;13.30;99.90
15556;DHT22;7879;48.660;9.116;2023-05-10T08:21:14;13.20;99.90
15556;DHT22;7879;48.660;9.116;2023-05-10T08:23:41;13.30;99.90
15556;DHT22;7879;48.660;9.116;2023-05-10T08:26:08;13.30;99.90
15556;DHT22;7879;48.660;9.116;2023-05-10T08:28:34;13.40;99.90
15556;DHT22;7879;48.660;9.116;2023-05-10T08:31:01;13.40;99.90
15556;DHT22;7879;48.660;9.116;2023-05-10T08:33:28;13.50;99.90
15556;DHT22;7879;48.660;9.116;2023-05-10T08:35:55;13.50;99.90
15556;DHT22;7879;48.660;9.116;2023-05-10T08:38:21;13.60;99.90
15556;DHT22;7879;48.660;9.116;2023-05-10T08:40:49;13.60;99.90
15556;DHT22;7879;48.660;9.116;2023-05-10T08:43:18;13.70;99.90
15556;DHT22;7879;48.660;9.116;2023-05-10T08:45:45;13.70;99.90
15556;DHT22;7879;48.660;9.116;2023-05-10T08:48:14;13.70;99.90
15556;DHT22;7879;48.660;9.116;2023-05-10T08:50:42;13.80;99.90
15556;DHT22;7879;48.660;9.116;2023-05-10T08:53:11;13.80;99.90
15556;DHT22;7879;48.660;9.116;2023-05-10T08:55:39;13.70;99.90
15556;DHT22;7879;48.660;9.116;2023-05-10T08:58:07;13.70;99.90
15556;DHT22;7879;48.660;9.116;2023-05-10T09:00:34;13.70;99.90
15556;DHT22;7879;48.660;9.116;2023-05-10T09:03:03;13.80;99.90
15556;DHT22;7879;48.660;9.116;2023-05-10T09:05:30;13.80;99.90
15556;DHT22;7879;48.660;9.116;2023-05-10T09:07:58;13.80;99.90
15556;DHT22;7879;48.660;9.116;2023-05-10T09:10:27;13.80;99.90
15556;DHT22;7879;48.660;9.116;2023-05-10T09:12:56;13.80;99.90
15556;DHT22;7879;48.660;9.116;2023-05-10T09:15:25;13.80;99.90
15556;DHT22;7879;48.660;9.116;2023-05-10T09:17:52;13.90;99.90
15556;DHT22;7879;48.660;9.116;2023-05-10T09:20:21;13.90;99.90
15556;DHT22;7879;48.660;9.116;2023-05-10T09:22:48;14.00;99.90
15556;DHT22;7879;48.660;9.116;2023-05-10T09:25:16;14.00;99.90
15556;DHT22;7879;48.660;9.116;2023-05-10T09:27:45;14.00;99.90
15556;DHT22;7879;48.660;9.116;2023-05-10T09:30:29;14.00;99.90
15556;DHT22;7879;48.660;9.116;2023-05-10T09:32:58;14.10;99.90
15556;DHT22;7879;48.660;9.116;2023-05-10T09:35:27;14.10;99.90
15556;DHT22;7879;48.660;9.116;2023-05-10T09:37:59;14.00;99.90
15556;DHT22;7879;48.660;9.116;2023-05-10T09:40:28;14.00;99.90
15556;DHT22;7879;48.660;9.116;2023-05-10T09:43:08;14.00;99.90
15556;DHT22;7879;48.660;9.116;2023-05-10T09:45:37;14.00;99.90
15556;DHT22;7879;48.660;9.116;2023-05-10T09:48:05;14.00;99.90
15556;DHT22;7879;48.660;9.116;2023-05-10T09:50:32;14.00;99.90
15556;DHT22;7879;48.660;9.116;2023-05-10T09:53:02;14.00;99.90
15556;DHT22;7879;48.660;9.116;2023-05-10T09:58:02;14.20;99.90
15556;DHT22;7879;48.660;9.116;2023-05-10T10:00:35;14.30;99.90
15556;DHT22;7879;48.660;9.116;2023-05-10T10:03:02;14.30;99.90
15556;DHT22;7879;48.660;9.116;2023-05-10T10:05:34;14.40;99.90
15556;DHT22;7879;48.660;9.116;2023-05-10T10:08:05;14.50;99.90
15556;DHT22;7879;48.660;9.116;2023-05-10T10:10:33;14.60;99.90
15556;DHT22;7879;48.660;9.116;2023-05-10T10:13:00;14.70;99.90
15556;DHT22;7879;48.660;9.116;2023-05-10T10:15:27;14.70;99.90
15556;DHT22;7879;48.660;9.116;2023-05-10T10:17:54;14.70;99.90
15556;DHT22;7879;48.660;9.116;2023-05-10T10:20:22;14.80;99.90
15556;DHT22;7879;48.660;9.116;2023-05-10T10:22:49;14.80;99.90
15556;DHT22;7879;48.660;9.116;2023-05-10T10:25:18;14.90;99.90
15556;DHT22;7879;48.660;9.116;2023-05-10T10:27:54;14.80;99.90
15556;DHT22;7879;48.660;9.116;2023-05-10T10:36:03;14.80;99.90
15556;DHT22;7879;48.660;9.116;2023-05-10T10:38:38;14.90;99.90
15556;DHT22;7879;48.660;9.116;2023-05-10T10:41:36;14.90;99.90
15556;DHT22;7879;48.660;9.116;2023-05-10T10:49:27;15.30;99.90
15556;DHT22;7879;48.660;9.116;2023-05-10T10:55:05;15.20;99.90
15556;DHT22;7879;48.660;9.116;2023-05-10T11:00:37;15.10;99.90
15556;DHT22;7879;48.660;9.116;2023-05-10T11:03:06;14.70;99.90
15556;DHT22;7879;48.660;9.116;2023-05-10T11:08:13;14.10;99.90
15556;DHT22;7879;48.660;9.116;2023-05-10T11:10:52;13.80;99.90
15556;DHT22;7879;48.660;9.116;2023-05-10T11:13:42;13.60;99.90
15556;DHT22;7879;48.660;9.116;2023-05-10T11:16:21;13.50;99.90
15556;DHT22;7879;48.660;9.116;2023-05-10T11:19:02;13.40;99.90
15556;DHT22;7879;48.660;9.116;2023-05-10T11:21:33;13.30;99.90
15556;DHT22;7879;48.660;9.116;2023-05-10T11:24:01;13.30;99.90
15556;DHT22;7879;48.660;9.116;2023-05-10T11:26:34;13.30;99.90
15556;DHT22;7879;48.660;9.116;2023-05-10T11:29:02;13.40;99.90
15556;DHT22;7879;48.660;9.116;2023-05-10T11:31:31;13.50;99.90
15556;DHT22;7879;48.660;9.116;2023-05-10T11:33:59;13.50;99.90
15556;DHT22;7879;48.660;9.116;2023-05-10T11:36:37;13.60;99.90
15556;DHT22;7879;48.660;9.116;2023-05-10T11:39:05;13.60;99.90
15556;DHT22;7879;48.660;9.116;2023-05-10T11:41:32;13.60;99.90
15556;DHT22;7879;48.660;9.116;2023-05-10T11:43:59;13.70;99.90
15556;DHT22;7879;48.660;9.116;2023-05-10T11:46:27;13.70;99.90
15556;DHT22;7879;48.660;9.116;2023-05-10T11:49:00;13.90;99.90
15556;DHT22;7879;48.660;9.116;2023-05-10T11:51:28;13.90;99.90
15556;DHT22;7879;48.660;9.116;2023-05-10T11:53:56;13.90;99.90
15556;DHT22;7879;48.660;9.116;2023-05-10T11:56:23;13.90;99.90
15556;DHT22;7879;48.660;9.116;2023-05-10T11:58:55;14.00;99.90
15556;DHT22;7879;48.660;9.116;2023-05-10T12:01:24;14.10;99.90
15556;DHT22;7879;48.660;9.116;2023-05-10T12:03:52;14.20;99.90
15556;DHT22;7879;48.660;9.116;2023-05-10T12:06:21;14.50;99.90
15556;DHT22;7879;48.660;9.116;2023-05-10T12:08:48;14.40;99.90
15556;DHT22;7879;48.660;9.116;2023-05-10T12:11:19;14.40;99.90
15556;DHT22;7879;48.660;9.116;2023-05-10T12:13:48;14.50;99.90
15556;DHT22;7879;48.660;9.116;2023-05-10T12:16:21;14.40;99.90
15556;DHT22;7879;48.660;9.116;2023-05-10T12:18:52;14.50;99.90
15556;DHT22;7879;48.660;9.116;2023-05-10T12:21:21;14.50;99.90
15556;DHT22;7879;48.660;9.116;2023-05-10T12:23:50;14.60;99.90
15556;DHT22;7879;48.660;9.116;2023-05-10T12:26:17;14.60;99.90
15556;DHT22;7879;48.660;9.116;2023-05-10T12:28:44;14.60;99.90
15556;DHT22;7879;48.660;9.116;2023-05-10T12:31:11;14.60;99.90
15556;DHT22;7879;48.660;9.116;2023-05-10T12:33:40;14.60;99.90
15556;DHT22;7879;48.660;9.116;2023-05-10T12:36:10;14.50;99.90
15556;DHT22;7879;48.660;9.116;2023-05-10T12:38:39;14.50;99.90
15556;DHT22;7879;48.660;9.116;2023-05-10T12:41:07;14.50;99.90
15556;DHT22;7879;48.660;9.116;2023-05-10T12:43:35;14.40;99.90
15556;DHT22;7879;48.660;9.116;2023-05-10T12:46:07;14.30;99.90
15556;DHT22;7879;48.660;9.116;2023-05-10T12:48:35;14.30;99.90
15556;DHT22;7879;48.660;9.116;2023-05-10T12:51:03;14.30;99.90
15556;DHT22;7879;48.660;9.116;2023-05-10T12:53:31;14.40;99.90
15556;DHT22;7879;48.660;9.116;2023-05-10T12:55:57;14.40;99.90
15556;DHT22;7879;48.660;9.116;2023-05-10T12:58:24;14.50;99.90
15556;DHT22;7879;48.660;9.116;2023-05-10T13:01:01;14.50;99.90
15556;DHT22;7879;48.660;9.116;2023-05-10T13:03:29;14.50;99.90
15556;DHT22;7879;48.660;9.116;2023-05-10T13:05:55;14.60;99.90
15556;DHT22;7879;48.660;9.116;2023-05-10T13:08:22;14.60;99.90
15556;DHT22;7879;48.660;9.116;2023-05-10T13:10:49;14.60;99.90
15556;DHT22;7879;48.660;9.116;2023-05-10T13:13:16;14.70;99.90
15556;DHT22;7879;48.660;9.116;2023-05-10T13:15:44;14.70;99.90
15556;DHT22;7879;48.660;9.116;2023-05-10T13:18:11;14.70;99.90
15556;DHT22;7879;48.660;9.116;2023-05-10T13:20:38;14.60;99.90
15556;DHT22;7879;48.660;9.116;2023-05-10T13:23:04;14.80;99.90
15556;DHT22;7879;48.660;9.116;2023-05-10T13:25:31;14.80;99.90
15556;DHT22;7879;48.660;9.116;2023-05-10T13:27:58;14.80;99.90
15556;DHT22;7879;48.660;9.116;2023-05-10T13:30:25;14.90;99.90
15556;DHT22;7879;48.660;9.116;2023-05-10T13:32:52;14.90;99.90
15556;DHT22;7879;48.660;9.116;2023-05-10T13:35:18;14.90;99.90
15556;DHT22;7879;48.660;9.116;2023-05-10T13:37:45;14.90;99.90
15556;DHT22;7879;48.660;9.116;2023-05-10T13:40:12;14.90;99.90
15556;DHT22;7879;48.660;9.116;2023-05-10T13:42:40;14.90;99.90
15556;DHT22;7879;48.660;9.116;2023-05-10T13:45:07;14.90;99.90
15556;DHT22;7879;48.660;9.116;2023-05-10T13:47:34;14.90;99.90
15556;DHT22;7879;48.660;9.116;2023-05-10T13:50:01;14.80;99.90
15556;DHT22;7879;48.660;9.116;2023-05-10T13:52:29;14.90;99.90
15556;DHT22;7879;48.660;9.116;2023-05-10T13:54:56;14.90;99.90
15556;DHT22;7879;48.660;9.116;2023-05-10T13:57:23;15.00;99.90
15556;DHT22;7879;48.660;9.116;2023-05-10T13:59:51;15.00;99.90
15556;DHT22;7879;48.660;9.116;2023-05-10T14:02:17;15.00;99.90
15556;DHT22;7879;48.660;9.116;2023-05-10T14:04:44;15.10;99.90
15556;DHT22;7879;48.660;9.116;2023-05-10T14:07:11;15.10;99.90
15556;DHT22;7879;48.660;9.116;2023-05-10T14:09:38;15.10;99.90
15556;DHT22;7879;48.660;9.116;2023-05-10T14:12:04;15.10;99.90
15556;DHT22;7879;48.660;9.116;2023-05-10T14:14:34;15.10;99.90
15556;DHT22;7879;48.660;9.116;2023-05-10T14:17:01;15.20;99.90
15556;DHT22;7879;48.660;9.116;2023-05-10T14:19:28;15.20;99.90
15556;DHT22;7879;48.660;9.116;2023-05-10T14:21:57;15.20;99.90
15556;DHT22;7879;48.660;9.116;2023-05-10T14:24:24;15.30;99.90
15556;DHT22;7879;48.660;9.116;2023-05-10T14:26:50;15.20;99.90
15556;DHT22;7879;48.660;9.116;2023-05-10T14:29:20;15.20;99.90
15556;DHT22;7879;48.660;9.116;2023-05-10T14:31:47;15.20;99.90
15556;DHT22;7879;48.660;9.116;2023-05-10T14:34:14;15.20;99.90
15556;DHT22;7879;48.660;9.116;2023-05-10T14:36:41;15.20;99.90
15556;DHT22;7879;48.660;9.116;2023-05-10T14:39:08;15.20;99.90
15556;DHT22;7879;48.660;9.116;2023-05-10T14:41:36;15.30;99.90
15556;DHT22;7879;48.660;9.116;2023-05-10T14:44:03;15.30;99.90
15556;DHT22;7879;48.660;9.116;2023-05-10T14:46:30;15.20;99.90
15556;DHT22;7879;48.660;9.116;2023-05-10T14:48:57;15.20;99.90
15556;DHT22;7879;48.660;9.116;2023-05-10T14:51:24;15.30;99.90
15556;DHT22;7879;48.660;9.116;2023-05-10T14:53:51;15.30;99.90
15556;DHT22;7879;48.660;9.116;2023-05-10T14:56:18;15.30;99.90
15556;DHT22;7879;48.660;9.116;2023-05-10T14:58:45;15.40;99.90
15556;DHT22;7879;48.660;9.116;2023-05-10T15:01:11;15.40;99.90
15556;DHT22;7879;48.660;9.116;2023-05-10T15:03:38;15.40;99.90
15556;DHT22;7879;48.660;9.116;2023-05-10T15:06:07;15.50;99.90
15556;DHT22;7879;48.660;9.116;2023-05-10T15:08:34;15.50;99.90
15556;DHT22;7879;48.660;9.116;2023-05-10T15:11:01;15.60;99.90
15556;DHT22;7879;48.660;9.116;2023-05-10T15:13:28;15.50;99.90
15556;DHT22;7879;48.660;9.116;2023-05-10T15:15:55;15.40;99.90
15556;DHT22;7879;48.660;9.116;2023-05-10T15:18:22;15.50;99.90
15556;DHT22;7879;48.660;9.116;2023-05-10T15:20:51;15.50;99.90
15556;DHT22;7879;48.660;9.116;2023-05-10T15:23:18;15.50;99.90
15556;DHT22;7879;48.660;9.116;2023-05-10T15:25:45;15.50;99.90
15556;DHT22;7879;48.660;9.116;2023-05-10T15:28:12;15.50;99.90
15556;DHT22;7879;48.660;9.116;2023-05-10T15:30:39;15.50;99.90
15556;DHT22;7879;48.660;9.116;2023-05-10T15:33:05;15.60;99.90
15556;DHT22;7879;48.660;9.116;2023-05-10T15:35:33;15.60;99.90
15556;DHT22;7879;48.660;9.116;2023-05-10T15:38:02;15.50;99.90
15556;DHT22;7879;48.660;9.116;2023-05-10T15:40:29;15.50;99.90
15556;DHT22;7879;48.660;9.116;2023-05-10T15:42:56;15.50;99.90
15556;DHT22;7879;48.660;9.116;2023-05-10T15:45:22;15.50;99.90
15556;DHT22;7879;48.660;9.116;2023-05-10T15:47:49;15.50;99.90
15556;DHT22;7879;48.660;9.116;2023-05-10T15:50:16;15.50;99.90
15556;DHT22;7879;48.660;9.116;2023-05-10T15:52:43;15.60;99.90
15556;DHT22;7879;48.660;9.116;2023-05-10T15:55:10;15.60;99.90
15556;DHT22;7879;48.660;9.116;2023-05-10T15:57:41;15.50;99.90
15556;DHT22;7879;48.660;9.116;2023-05-10T16:00:10;15.50;99.90
15556;DHT22;7879;48.660;9.116;2023-05-10T16:02:38;15.50;99.90
15556;DHT22;7879;48.660;9.116;2023-05-10T16:05:05;15.50;99.90
15556;DHT22;7879;48.660;9.116;2023-05-10T16:07:32;15.50;99.90
15556;DHT22;7879;48.660;9.116;2023-05-10T16:09:59;15.50;99.90
15556;DHT22;7879;48.660;9.116;2023-05-10T16:12:30;15.40;99.90
15556;DHT22;7879;48.660;9.116;2023-05-10T16:14:57;15.40;99.90
15556;DHT22;7879;48.660;9.116;2023-05-10T16:17:23;15.40;99.90
15556;DHT22;7879;48.660;9.116;2023-05-10T16:19:50;15.40;99.90
15556;DHT22;7879;48.660;9.116;2023-05-10T16:22:17;15.30;99.90
15556;DHT22;7879;48.660;9.116;2023-05-10T16:24:44;15.40;99.90